Time;durP1;ratioP1;P1;durP2;ratioP2;P2;SDS_P1;SDS_P2;PMS_P1;PMS_P2;Temp;Humidity;BMP_temperature;BMP_pressure;BME280_temperature;BME280_humidity;BME280_pressure;Samples;Min_cycle;Max_cycle;Signal;HPM_P1;HPM_P2
2022/10/10 00:01:13;;;;;;;7.07;5.20;;;8.60;99.90;;;;;;5056776;28;20446;-79
2022/10/10 00:03:42;;;;;;;6.23;4.30;;;8.50;99.90;;;;;;5055844;28;20442;-79
2022/10/10 00:06:13;;;;;;;8.50;4.53;;;8.60;99.90;;;;;;5058358;28;20588;-78
2022/10/10 00:08:41;;;;;;;5.13;4.30;;;8.60;99.90;;;;;;5061164;28;20461;-80
2022/10/10 00:11:10;;;;;;;5.47;4.70;;;8.60;99.90;;;;;;5060954;28;20489;-80
2022/10/10 00:13:39;;;;;;;5.60;4.40;;;8.50;99.90;;;;;;5060618;28;20819;-79
2022/10/10 00:16:07;;;;;;;6.87;4.53;;;8.50;99.90;;;;;;5060678;28;20479;-81
2022/10/10 00:18:35;;;;;;;7.70;5.17;;;8.50;99.90;;;;;;5062035;28;20446;-81
2022/10/10 00:21:04;;;;;;;7.13;4.43;;;8.50;99.90;;;;;;5061064;28;20445;-80
2022/10/10 00:23:33;;;;;;;6.73;4.53;;;8.50;99.90;;;;;;5060627;28;20457;-81
2022/10/10 00:26:02;;;;;;;7.50;4.93;;;8.50;99.90;;;;;;5060609;28;20472;-81
2022/10/10 00:28:37;;;;;;;5.47;4.67;;;8.50;99.90;;;;;;5061900;28;20474;-81
2022/10/10 00:31:06;;;;;;;8.30;5.30;;;8.50;99.90;;;;;;5062082;28;20874;-81
2022/10/10 00:33:34;;;;;;;7.90;4.70;;;8.50;99.90;;;;;;5062402;28;20446;-81
2022/10/10 00:36:03;;;;;;;6.07;5.00;;;8.40;99.90;;;;;;5062104;28;20975;-81
2022/10/10 00:38:31;;;;;;;6.80;4.33;;;8.40;99.90;;;;;;5063304;28;20454;-81
2022/10/10 00:41:00;;;;;;;6.77;4.90;;;8.40;99.90;;;;;;5066158;28;20460;-81
2022/10/10 00:43:29;;;;;;;6.87;4.30;;;8.40;99.90;;;;;;5069871;28;20445;-81
2022/10/10 00:45:57;;;;;;;8.07;4.60;;;8.40;99.90;;;;;;5076044;28;20492;-81
2022/10/10 00:48:28;;;;;;;6.83;5.00;;;8.40;99.90;;;;;;5069880;28;20449;-81
2022/10/10 00:51:01;;;;;;;5.80;4.67;;;8.30;99.90;;;;;;5074294;28;20422;-81
2022/10/10 00:53:34;;;;;;;6.30;4.50;;;8.30;99.90;;;;;;5075723;28;20537;-80
2022/10/10 00:56:04;;;;;;;5.93;4.80;;;8.30;99.90;;;;;;5078054;28;20466;-79
2022/10/10 00:58:35;;;;;;;5.10;4.50;;;8.30;99.90;;;;;;5077505;28;20453;-79
2022/10/10 01:01:03;;;;;;;8.30;5.13;;;8.30;99.90;;;;;;5079429;28;20466;-81
2022/10/10 01:03:32;;;;;;;6.23;4.20;;;8.30;99.90;;;;;;5074359;28;20468;-81
2022/10/10 01:06:00;;;;;;;8.40;4.73;;;8.20;99.90;;;;;;5071687;28;20484;-81
2022/10/10 01:08:28;;;;;;;6.33;4.70;;;8.20;99.90;;;;;;5069557;28;20450;-81
2022/10/10 01:11:11;;;;;;;6.90;4.50;;;8.20;99.90;;;;;;5066573;28;20508;-81
2022/10/10 01:13:51;;;;;;;5.83;4.17;;;8.20;99.90;;;;;;5066004;28;20546;-81
2022/10/10 01:16:27;;;;;;;6.93;5.13;;;8.20;99.90;;;;;;5065717;28;20484;-81
2022/10/10 01:19:08;;;;;;;7.30;5.10;;;8.20;99.90;;;;;;5065549;28;20441;-80
2022/10/10 01:21:42;;;;;;;5.87;4.50;;;8.20;99.90;;;;;;5066630;28;20780;-81
2022/10/10 01:24:42;;;;;;;6.27;4.83;;;8.10;99.90;;;;;;5067610;28;20430;-82
2022/10/10 01:27:28;;;;;;;7.70;4.70;;;8.10;99.90;;;;;;5067986;28;20440;-81
2022/10/10 01:30:05;;;;;;;5.90;4.90;;;8.10;99.90;;;;;;5068571;28;20470;-81
2022/10/10 01:32:42;;;;;;;7.50;4.50;;;8.10;99.90;;;;;;5068052;28;20452;-80
2022/10/10 01:35:28;;;;;;;10.53;4.90;;;8.10;99.90;;;;;;5069121;28;20478;-80
2022/10/10 01:38:05;;;;;;;6.43;4.73;;;8.10;99.90;;;;;;5064859;28;20434;-80
2022/10/10 01:40:39;;;;;;;9.17;4.30;;;8.10;99.90;;;;;;5056901;28;20446;-80
2022/10/10 01:43:08;;;;;;;6.53;4.83;;;8.00;99.90;;;;;;5057510;28;20437;-80
2022/10/10 01:45:43;;;;;;;7.17;4.70;;;8.00;99.90;;;;;;5058765;28;20998;-79
2022/10/10 01:48:11;;;;;;;6.57;4.73;;;8.00;99.90;;;;;;5057285;28;20448;-78
2022/10/10 01:50:53;;;;;;;6.47;5.07;;;8.00;99.90;;;;;;5056319;28;20470;-81
2022/10/10 01:53:28;;;;;;;5.40;3.93;;;8.00;99.90;;;;;;5057048;28;20446;-79
2022/10/10 01:56:03;;;;;;;6.30;4.70;;;8.00;99.90;;;;;;5056712;28;20891;-80
2022/10/10 01:59:00;;;;;;;7.80;4.77;;;8.00;99.90;;;;;;5056753;28;20434;-79
2022/10/10 02:01:41;;;;;;;7.73;4.17;;;8.00;99.90;;;;;;5058843;28;20892;-80
2022/10/10 02:04:18;;;;;;;7.23;4.60;;;7.90;99.90;;;;;;5058169;28;20546;-79
2022/10/10 02:06:52;;;;;;;6.40;4.40;;;7.90;99.90;;;;;;5056488;28;20449;-80
2022/10/10 02:09:28;;;;;;;6.80;4.40;;;7.90;99.90;;;;;;5057834;28;20458;-79
2022/10/10 02:11:58;;;;;;;6.67;4.33;;;7.90;99.90;;;;;;5056634;28;20449;-79
2022/10/10 02:14:31;;;;;;;6.77;4.47;;;7.90;99.90;;;;;;5056688;28;20477;-81
2022/10/10 02:17:03;;;;;;;5.40;3.83;;;7.90;99.90;;;;;;5056323;28;20434;-80
2022/10/10 02:19:31;;;;;;;5.80;4.10;;;7.90;99.90;;;;;;5057171;28;20453;-79
2022/10/10 02:22:00;;;;;;;5.13;3.93;;;7.80;99.90;;;;;;5056568;28;20449;-80
2022/10/10 02:24:28;;;;;;;9.50;4.20;;;7.80;99.90;;;;;;5057974;28;20902;-80
2022/10/10 02:27:02;;;;;;;6.87;4.67;;;7.80;99.90;;;;;;5056380;28;20456;-80
2022/10/10 02:29:34;;;;;;;6.13;3.97;;;7.80;99.90;;;;;;5056607;28;20904;-80
2022/10/10 02:32:09;;;;;;;5.87;4.40;;;7.80;99.90;;;;;;5056318;28;20442;-81
2022/10/10 02:34:40;;;;;;;6.60;4.07;;;7.80;99.90;;;;;;5057685;28;20514;-80
2022/10/10 02:37:12;;;;;;;5.93;4.60;;;7.80;99.90;;;;;;5058356;28;20941;-80
2022/10/10 02:39:43;;;;;;;7.70;4.27;;;7.80;99.90;;;;;;5057806;28;20467;-80
2022/10/10 02:42:14;;;;;;;5.17;4.07;;;7.80;99.90;;;;;;5057819;28;20456;-79
2022/10/10 02:44:44;;;;;;;6.33;4.30;;;7.70;99.90;;;;;;5056030;28;21003;-80
2022/10/10 02:47:14;;;;;;;6.30;4.27;;;7.70;99.90;;;;;;5059506;28;20460;-81
2022/10/10 02:49:42;;;;;;;5.63;4.13;;;7.70;99.90;;;;;;5061180;28;21042;-80
2022/10/10 02:52:13;;;;;;;7.10;4.40;;;7.70;99.90;;;;;;5061381;28;20845;-80
2022/10/10 02:54:41;;;;;;;7.50;3.83;;;7.70;99.90;;;;;;5060269;28;20468;-80
2022/10/10 02:57:10;;;;;;;7.60;4.57;;;7.70;99.90;;;;;;5057928;28;20463;-81
2022/10/10 02:59:38;;;;;;;8.63;4.80;;;7.70;99.90;;;;;;5057999;28;20457;-81
2022/10/10 03:02:06;;;;;;;5.60;4.03;;;7.70;99.90;;;;;;5059091;28;20966;-81
2022/10/10 03:04:36;;;;;;;10.77;4.40;;;7.60;99.90;;;;;;5059457;28;20469;-81
2022/10/10 03:07:05;;;;;;;9.43;4.57;;;7.60;99.90;;;;;;5059530;28;20476;-81
2022/10/10 03:09:33;;;;;;;6.97;4.30;;;7.60;99.90;;;;;;5058100;28;20500;-80
2022/10/10 03:12:01;;;;;;;7.10;4.40;;;7.60;99.90;;;;;;5057786;28;20477;-81
2022/10/10 03:14:30;;;;;;;5.67;4.80;;;7.60;99.90;;;;;;5057288;28;20998;-81
2022/10/10 03:16:58;;;;;;;10.47;4.33;;;7.50;99.90;;;;;;5058137;28;20450;-81
2022/10/10 03:19:26;;;;;;;6.40;4.60;;;7.50;99.90;;;;;;5056848;28;20457;-80
2022/10/10 03:21:56;;;;;;;7.67;4.70;;;7.50;99.90;;;;;;5057375;28;20477;-81
2022/10/10 03:24:24;;;;;;;6.53;4.93;;;7.50;99.90;;;;;;5057617;28;20471;-80
2022/10/10 03:26:53;;;;;;;6.80;4.80;;;7.50;99.90;;;;;;5057951;28;20471;-79
2022/10/10 03:29:21;;;;;;;6.10;4.43;;;7.50;99.90;;;;;;5058649;28;20442;-80
2022/10/10 03:31:50;;;;;;;6.80;4.87;;;7.50;99.90;;;;;;5057052;28;20545;-81
2022/10/10 03:34:18;;;;;;;6.10;4.60;;;7.50;99.90;;;;;;5055596;28;20442;-79
2022/10/10 03:36:46;;;;;;;5.37;4.10;;;7.40;99.90;;;;;;5056433;28;20445;-79
2022/10/10 03:39:16;;;;;;;7.47;4.47;;;7.40;99.90;;;;;;5054760;28;20506;-78
2022/10/10 03:41:44;;;;;;;5.57;4.50;;;7.40;99.90;;;;;;5054353;28;20438;-79
2022/10/10 03:44:12;;;;;;;7.33;4.80;;;7.40;99.90;;;;;;5056324;28;20499;-81
2022/10/10 03:46:40;;;;;;;4.77;3.90;;;7.40;99.90;;;;;;5055480;28;20458;-80
2022/10/10 03:49:08;;;;;;;9.87;8.33;;;7.30;99.90;;;;;;5056635;28;20457;-80
2022/10/10 03:51:36;;;;;;;14.83;9.57;;;7.30;99.90;;;;;;5055405;28;20473;-81
2022/10/10 03:54:04;;;;;;;10.53;6.50;;;7.30;99.90;;;;;;5055103;28;20460;-78
2022/10/10 03:56:34;;;;;;;8.63;6.53;;;7.30;99.90;;;;;;5055332;28;20522;-79
2022/10/10 03:59:02;;;;;;;11.77;9.40;;;7.30;99.90;;;;;;5056286;28;20445;-81
2022/10/10 04:01:30;;;;;;;7.63;5.50;;;7.30;99.90;;;;;;5056278;28;20484;-80
2022/10/10 04:03:59;;;;;;;8.97;5.13;;;7.30;99.90;;;;;;5056197;28;20451;-80
2022/10/10 04:06:28;;;;;;;8.17;5.10;;;7.20;99.90;;;;;;5055433;28;20465;-80
2022/10/10 04:08:56;;;;;;;7.10;4.77;;;7.20;99.90;;;;;;5056432;28;20436;-79
2022/10/10 04:11:24;;;;;;;6.70;4.73;;;7.20;99.90;;;;;;5056451;28;21070;-79
2022/10/10 04:13:53;;;;;;;5.73;4.27;;;7.20;99.90;;;;;;5056586;28;20434;-80
2022/10/10 04:16:21;;;;;;;6.93;5.10;;;7.20;99.90;;;;;;5055067;28;20476;-81
2022/10/10 04:18:50;;;;;;;6.70;4.50;;;7.20;99.90;;;;;;5056133;28;20452;-79
2022/10/10 04:21:18;;;;;;;7.47;4.40;;;7.20;99.90;;;;;;5055677;28;20446;-79
2022/10/10 04:23:46;;;;;;;6.53;4.40;;;7.20;99.90;;;;;;5056510;28;20448;-81
2022/10/10 04:26:14;;;;;;;11.23;7.50;;;7.10;99.90;;;;;;5054692;28;21013;-81
2022/10/10 04:28:42;;;;;;;11.50;7.13;;;7.10;99.90;;;;;;5054961;28;20481;-79
2022/10/10 04:31:12;;;;;;;8.27;5.57;;;7.10;99.90;;;;;;5055456;28;20468;-80
2022/10/10 04:33:40;;;;;;;6.60;5.27;;;7.10;99.90;;;;;;5054922;28;20514;-80
2022/10/10 04:36:08;;;;;;;8.93;6.60;;;7.10;99.90;;;;;;5056146;28;20457;-79
2022/10/10 04:38:36;;;;;;;7.37;5.00;;;7.10;99.90;;;;;;5055529;28;20449;-80
2022/10/10 04:41:05;;;;;;;9.33;8.20;;;7.10;99.90;;;;;;5056575;28;20438;-79
2022/10/10 04:43:33;;;;;;;12.10;8.23;;;7.10;99.90;;;;;;5054874;28;20444;-79
2022/10/10 04:46:01;;;;;;;8.63;6.07;;;7.10;99.90;;;;;;5054441;28;20494;-79
2022/10/10 04:48:30;;;;;;;6.90;5.13;;;7.10;99.90;;;;;;5053815;28;20460;-79
2022/10/10 04:50:59;;;;;;;6.70;4.67;;;7.00;99.90;;;;;;5056297;28;20987;-79
2022/10/10 04:53:28;;;;;;;7.80;5.50;;;7.00;99.90;;;;;;5058618;28;20457;-79
2022/10/10 04:55:56;;;;;;;6.87;5.00;;;7.00;99.90;;;;;;5058841;28;20487;-80
2022/10/10 04:58:24;;;;;;;9.03;5.47;;;7.00;99.90;;;;;;5058423;28;20536;-79
2022/10/10 05:00:53;;;;;;;10.20;4.90;;;7.00;99.90;;;;;;5058418;28;20940;-79
2022/10/10 05:03:22;;;;;;;7.00;5.10;;;7.00;99.90;;;;;;5059225;28;20950;-79
2022/10/10 05:05:51;;;;;;;8.73;5.40;;;7.00;99.90;;;;;;5058016;28;20473;-79
2022/10/10 05:08:20;;;;;;;6.70;4.80;;;7.00;99.90;;;;;;5058382;28;20450;-79
2022/10/10 05:10:51;;;;;;;8.60;5.20;;;7.00;99.90;;;;;;5059152;28;20447;-79
2022/10/10 05:13:19;;;;;;;6.37;5.20;;;7.00;99.90;;;;;;5059571;28;20433;-79
2022/10/10 05:15:50;;;;;;;6.70;5.50;;;6.90;99.90;;;;;;5058298;28;20487;-79
2022/10/10 05:18:19;;;;;;;6.20;4.93;;;6.90;99.90;;;;;;5058130;28;20820;-80
2022/10/10 05:20:47;;;;;;;8.13;4.73;;;7.40;99.90;;;;;;5057596;28;20454;-79
2022/10/10 05:23:17;;;;;;;6.10;4.87;;;6.90;99.90;;;;;;5057513;28;20486;-79
2022/10/10 05:25:48;;;;;;;8.50;6.50;;;6.90;99.90;;;;;;5057327;28;20487;-79
2022/10/10 05:28:16;;;;;;;6.83;5.90;;;6.90;99.90;;;;;;5057990;28;20869;-79
2022/10/10 05:30:44;;;;;;;8.57;6.23;;;6.90;99.90;;;;;;5057715;28;20460;-79
2022/10/10 05:33:13;;;;;;;7.90;6.50;;;6.90;99.90;;;;;;5059444;28;20943;-80
2022/10/10 05:35:41;;;;;;;8.53;6.67;;;6.90;99.90;;;;;;5058727;28;20492;-80
2022/10/10 05:38:09;;;;;;;8.40;6.90;;;6.80;99.90;;;;;;5057351;28;20451;-79
2022/10/10 05:40:40;;;;;;;8.50;5.80;;;6.80;99.90;;;;;;5058766;28;20516;-79
2022/10/10 05:43:09;;;;;;;7.00;5.97;;;6.80;99.90;;;;;;5057503;28;20532;-78
2022/10/10 05:45:37;;;;;;;8.40;5.70;;;6.80;99.90;;;;;;5056970;28;20485;-77
2022/10/10 05:48:05;;;;;;;6.30;5.60;;;6.80;99.90;;;;;;5057709;28;20456;-78
2022/10/10 05:50:37;;;;;;;9.97;5.80;;;6.80;99.90;;;;;;5059710;28;20446;-77
2022/10/10 05:53:06;;;;;;;6.13;5.20;;;6.80;99.90;;;;;;5058033;28;20471;-77
2022/10/10 05:55:35;;;;;;;10.10;5.80;;;6.80;99.90;;;;;;5057877;28;20468;-78
2022/10/10 05:58:05;;;;;;;17.13;7.20;;;6.80;99.90;;;;;;5057735;28;20559;-78
2022/10/10 06:00:33;;;;;;;8.70;6.67;;;6.80;99.90;;;;;;5057875;28;20960;-78
2022/10/10 06:03:02;;;;;;;6.20;5.23;;;6.80;99.90;;;;;;5058043;28;20445;-77
2022/10/10 06:05:30;;;;;;;7.80;5.33;;;6.80;99.90;;;;;;5057269;28;20470;-78
2022/10/10 06:07:58;;;;;;;6.33;5.20;;;6.80;99.90;;;;;;5058426;28;20481;-77
2022/10/10 06:10:40;;;;;;;8.10;5.70;;;6.80;99.90;;;;;;5058680;28;20786;-78
2022/10/10 06:13:10;;;;;;;7.07;5.20;;;6.80;99.90;;;;;;5057397;28;20571;-78
2022/10/10 06:15:38;;;;;;;6.37;5.30;;;6.80;99.90;;;;;;5058084;28;20466;-78
2022/10/10 06:18:07;;;;;;;6.20;5.07;;;6.80;99.90;;;;;;5056594;28;20454;-77
2022/10/10 06:20:35;;;;;;;6.83;5.47;;;6.80;99.90;;;;;;5056694;28;20462;-77
2022/10/10 06:23:05;;;;;;;7.03;5.60;;;6.90;99.90;;;;;;5056069;28;20446;-78
2022/10/10 06:25:35;;;;;;;7.63;5.40;;;6.90;99.90;;;;;;5057924;28;20556;-78
2022/10/10 06:28:10;;;;;;;9.10;4.80;;;6.90;99.90;;;;;;5058419;28;20917;-78
2022/10/10 06:30:43;;;;;;;7.53;5.10;;;6.90;99.90;;;;;;5056905;28;20473;-78
2022/10/10 06:33:12;;;;;;;7.20;5.20;;;6.90;99.90;;;;;;5057703;28;20467;-78
2022/10/10 06:35:41;;;;;;;6.03;5.43;;;6.90;99.90;;;;;;5056740;28;20481;-78
2022/10/10 06:38:09;;;;;;;8.13;7.00;;;6.90;99.90;;;;;;5056200;28;20464;-78
2022/10/10 06:40:38;;;;;;;8.77;6.67;;;7.00;99.90;;;;;;5056414;28;20464;-78
2022/10/10 06:43:10;;;;;;;8.10;6.27;;;7.00;99.90;;;;;;5055661;28;20548;-78
2022/10/10 06:45:41;;;;;;;10.20;6.90;;;7.00;99.90;;;;;;5056015;28;20484;-77
2022/10/10 06:48:09;;;;;;;7.20;6.20;;;7.10;99.90;;;;;;5057938;28;20432;-79
2022/10/10 06:50:38;;;;;;;9.37;7.00;;;7.10;99.90;;;;;;5057760;28;20452;-78
2022/10/10 06:53:06;;;;;;;7.63;6.93;;;7.10;99.90;;;;;;5057356;28;20566;-78
2022/10/10 06:55:34;;;;;;;10.27;7.00;;;7.20;99.90;;;;;;5057062;28;20460;-78
2022/10/10 06:58:03;;;;;;;7.43;6.27;;;7.20;99.90;;;;;;5056670;28;20453;-78
2022/10/10 07:00:31;;;;;;;8.57;7.40;;;7.20;99.90;;;;;;5056602;28;20456;-78
2022/10/10 07:03:05;;;;;;;9.80;7.00;;;7.20;99.90;;;;;;5058648;28;20445;-79
2022/10/10 07:05:34;;;;;;;10.47;8.63;;;7.30;99.90;;;;;;5057072;28;20470;-78
2022/10/10 07:08:02;;;;;;;12.40;8.93;;;7.30;99.90;;;;;;5056810;28;20456;-78
2022/10/10 07:10:30;;;;;;;9.30;8.17;;;7.40;99.90;;;;;;5060387;28;20444;-78
2022/10/10 07:12:58;;;;;;;9.30;7.13;;;7.40;99.90;;;;;;5058438;28;20568;-78
2022/10/10 07:15:26;;;;;;;8.63;7.40;;;7.50;99.90;;;;;;5058408;28;20468;-78
2022/10/10 07:17:58;;;;;;;8.83;7.97;;;7.50;99.90;;;;;;5059242;28;20547;-78
2022/10/10 07:20:28;;;;;;;11.23;10.10;;;7.60;99.90;;;;;;5060105;28;20429;-77
2022/10/10 07:22:56;;;;;;;11.80;10.60;;;7.60;99.90;;;;;;5059022;28;20482;-78
2022/10/10 07:25:25;;;;;;;10.20;9.20;;;7.60;99.90;;;;;;5059966;28;20462;-77
2022/10/10 07:27:53;;;;;;;13.30;11.90;;;7.70;99.90;;;;;;5058248;28;20438;-77
2022/10/10 07:30:21;;;;;;;8.13;7.00;;;7.80;99.90;;;;;;5057139;28;20453;-77
2022/10/10 07:32:50;;;;;;;9.27;7.67;;;7.80;99.90;;;;;;5056572;28;20513;-78
2022/10/10 07:35:18;;;;;;;18.03;16.13;;;7.90;99.90;;;;;;5056059;28;20820;-78
2022/10/10 07:37:48;;;;;;;12.97;8.50;;;8.00;99.90;;;;;;5056464;28;20447;-77
2022/10/10 07:40:17;;;;;;;6.80;5.80;;;8.10;99.90;;;;;;5057785;28;20465;-78
2022/10/10 07:42:45;;;;;;;8.13;7.17;;;8.20;99.90;;;;;;5057846;28;20862;-78
2022/10/10 07:45:13;;;;;;;9.73;7.13;;;8.20;99.90;;;;;;5055285;28;20486;-78
2022/10/10 07:47:42;;;;;;;6.70;6.00;;;8.30;99.90;;;;;;5055406;28;20457;-77
2022/10/10 07:50:12;;;;;;;8.50;6.47;;;8.40;99.90;;;;;;5056430;28;20506;-77
2022/10/10 07:52:40;;;;;;;7.70;5.50;;;8.50;99.90;;;;;;5060591;28;20487;-78
2022/10/10 07:55:10;;;;;;;7.80;5.80;;;8.60;99.90;;;;;;5061329;28;20484;-78
2022/10/10 07:57:38;;;;;;;8.50;5.33;;;8.80;99.90;;;;;;5060738;28;20481;-78
2022/10/10 08:00:11;;;;;;;7.70;5.30;;;9.00;99.90;;;;;;5059110;28;20446;-78
2022/10/10 08:02:39;;;;;;;6.63;5.10;;;9.10;99.90;;;;;;5057905;28;20430;-78
2022/10/10 08:05:08;;;;;;;6.87;4.60;;;9.20;99.90;;;;;;5057147;28;20505;-78
2022/10/10 08:07:36;;;;;;;8.30;6.87;;;9.40;99.90;;;;;;5058529;28;20458;-78
2022/10/10 08:10:07;;;;;;;10.40;6.57;;;9.50;99.90;;;;;;5058936;28;20456;-78
2022/10/10 08:12:36;;;;;;;5.47;4.90;;;9.70;99.90;;;;;;5057772;28;20481;-76
2022/10/10 08:15:05;;;;;;;7.57;5.80;;;9.80;99.90;;;;;;5057598;28;20474;-78
2022/10/10 08:17:34;;;;;;;8.00;4.67;;;9.90;99.90;;;;;;5056187;28;20511;-77
2022/10/10 08:20:02;;;;;;;22.07;8.63;;;10.10;99.90;;;;;;5055534;28;20450;-77
2022/10/10 08:22:30;;;;;;;9.10;6.03;;;10.20;99.90;;;;;;5056680;28;20461;-78
2022/10/10 08:24:58;;;;;;;7.30;5.57;;;10.30;99.90;;;;;;5054263;28;20509;-77
2022/10/10 08:27:27;;;;;;;6.83;5.10;;;10.50;99.90;;;;;;5055992;28;20495;-77
2022/10/10 08:29:56;;;;;;;7.63;5.27;;;10.50;99.90;;;;;;5059558;28;20449;-77
2022/10/10 08:32:24;;;;;;;8.10;5.40;;;10.70;99.90;;;;;;5058016;28;20445;-77
2022/10/10 08:34:52;;;;;;;6.23;4.70;;;10.80;99.90;;;;;;5059290;28;20457;-77
2022/10/10 08:37:20;;;;;;;9.10;5.83;;;10.90;99.90;;;;;;5059346;28;20802;-77
2022/10/10 08:39:55;;;;;;;6.90;5.10;;;11.00;99.90;;;;;;5058914;28;20438;-77
2022/10/10 08:42:30;;;;;;;6.00;5.20;;;11.10;99.90;;;;;;5059884;28;20458;-77
2022/10/10 08:45:04;;;;;;;6.10;5.40;;;11.20;99.90;;;;;;5061141;28;20518;-77
2022/10/10 08:47:39;;;;;;;7.63;5.00;;;11.30;99.90;;;;;;5060911;28;20422;-78
2022/10/10 08:50:14;;;;;;;7.50;5.40;;;11.40;99.90;;;;;;5060186;28;20456;-78
2022/10/10 08:52:48;;;;;;;5.50;4.40;;;11.50;99.90;;;;;;5058168;28;20449;-77
2022/10/10 08:55:22;;;;;;;6.10;4.87;;;11.60;99.90;;;;;;5059498;28;20460;-77
2022/10/10 08:57:55;;;;;;;5.90;4.60;;;11.70;99.90;;;;;;5059173;28;20453;-78
2022/10/10 09:00:31;;;;;;;7.73;5.00;;;11.80;99.90;;;;;;5060672;28;20430;-78
2022/10/10 09:03:00;;;;;;;8.93;5.40;;;11.90;99.90;;;;;;5058258;28;20496;-78
2022/10/10 09:05:45;;;;;;;6.80;4.90;;;12.00;99.90;;;;;;5058766;28;20492;-78
2022/10/10 09:08:31;;;;;;;12.20;5.53;;;12.10;99.90;;;;;;5059278;28;20445;-77
2022/10/10 09:11:08;;;;;;;8.10;4.63;;;12.20;99.90;;;;;;5062284;28;20415;-78
2022/10/10 09:13:40;;;;;;;5.23;4.73;;;12.30;99.90;;;;;;5060811;28;20979;-78
2022/10/10 09:16:37;;;;;;;6.10;5.10;;;12.40;99.90;;;;;;5058601;28;20492;-77
2022/10/10 09:19:22;;;;;;;8.33;4.93;;;12.50;99.90;;;;;;5056291;28;20468;-78
2022/10/10 09:21:55;;;;;;;7.83;5.00;;;12.60;99.90;;;;;;5055043;28;20445;-78
2022/10/10 09:24:26;;;;;;;6.03;4.80;;;12.80;99.90;;;;;;5056057;28;20504;-76
2022/10/10 09:27:00;;;;;;;6.10;4.20;;;12.90;99.90;;;;;;5055080;28;20534;-76
2022/10/10 09:29:32;;;;;;;9.90;5.23;;;13.00;99.90;;;;;;5056928;28;20457;-77
2022/10/10 09:32:09;;;;;;;6.70;5.40;;;13.00;99.90;;;;;;5056819;28;20430;-76
2022/10/10 09:34:42;;;;;;;6.40;5.07;;;13.20;99.90;;;;;;5055840;28;20485;-77
2022/10/10 09:37:15;;;;;;;5.70;4.93;;;13.30;99.90;;;;;;5055577;28;20446;-78
2022/10/10 09:40:02;;;;;;;6.00;5.40;;;13.40;99.90;;;;;;5055630;28;20438;-78
2022/10/10 09:42:35;;;;;;;9.43;5.60;;;13.50;99.90;;;;;;5057673;28;20422;-77
2022/10/10 09:45:13;;;;;;;8.00;5.20;;;13.60;99.90;;;;;;5057501;28;20474;-79
2022/10/10 09:47:42;;;;;;;10.80;5.60;;;13.70;99.90;;;;;;5056756;28;20438;-79
2022/10/10 09:50:13;;;;;;;7.50;5.50;;;13.80;99.90;;;;;;5058192;28;20544;-79
2022/10/10 09:52:42;;;;;;;7.30;6.07;;;13.80;99.90;;;;;;5058501;28;20426;-77
2022/10/10 09:55:23;;;;;;;7.33;5.00;;;13.90;99.90;;;;;;5055437;28;20482;-77
2022/10/10 09:57:53;;;;;;;7.13;6.00;;;13.90;99.90;;;;;;5055384;28;20445;-77
2022/10/10 10:00:28;;;;;;;6.90;5.43;;;14.00;99.90;;;;;;5055272;28;20453;-78
2022/10/10 10:03:12;;;;;;;6.13;5.40;;;14.00;99.90;;;;;;5058658;28;20437;-78
2022/10/10 10:05:44;;;;;;;7.13;5.60;;;14.10;99.90;;;;;;5061262;28;20889;-79
2022/10/10 10:08:21;;;;;;;8.60;6.17;;;14.10;99.90;;;;;;5060691;28;20414;-78
2022/10/10 10:10:49;;;;;;;8.70;5.83;;;14.20;99.90;;;;;;5058696;28;20525;-78
2022/10/10 10:13:25;;;;;;;7.93;5.30;;;14.20;99.90;;;;;;5061301;28;20986;-79
2022/10/10 10:16:00;;;;;;;7.60;5.60;;;14.30;99.90;;;;;;5059555;28;20483;-78
2022/10/10 10:18:31;;;;;;;9.43;6.67;;;14.40;99.90;;;;;;5056250;28;20453;-78
2022/10/10 10:21:15;;;;;;;9.53;6.37;;;14.40;99.90;;;;;;5054405;28;20426;-77
2022/10/10 10:23:52;;;;;;;7.87;6.77;;;14.50;99.90;;;;;;5056466;28;20469;-78
2022/10/10 10:26:23;;;;;;;7.33;6.63;;;14.50;99.90;;;;;;5057438;28;20567;-76
2022/10/10 10:28:52;;;;;;;10.17;7.27;;;14.60;99.90;;;;;;5056465;28;20426;-79
2022/10/10 10:31:34;;;;;;;9.50;6.73;;;14.60;99.90;;;;;;5054897;28;20860;-77
2022/10/10 10:34:31;;;;;;;7.80;7.10;;;14.70;99.90;;;;;;5055575;28;20474;-77
2022/10/10 10:37:11;;;;;;;10.43;6.60;;;14.80;99.90;;;;;;5055632;28;20487;-78
2022/10/10 10:39:55;;;;;;;10.37;7.30;;;14.90;99.90;;;;;;5055292;28;20430;-78
2022/10/10 10:42:39;;;;;;;8.80;6.40;;;14.90;99.90;;;;;;5053947;28;20450;-77
2022/10/10 10:45:16;;;;;;;8.37;6.37;;;15.00;99.90;;;;;;5056249;28;20480;-79
2022/10/10 10:47:55;;;;;;;17.30;7.53;;;15.00;99.90;;;;;;5057167;28;20449;-77
2022/10/10 10:50:43;;;;;;;11.50;7.93;;;15.20;99.90;;;;;;5060211;28;20422;-79
2022/10/10 10:53:21;;;;;;;7.70;6.10;;;15.20;99.90;;;;;;5058755;28;20862;-79
2022/10/10 10:55:57;;;;;;;11.13;6.47;;;15.30;99.90;;;;;;5060551;28;20564;-80
2022/10/10 10:58:50;;;;;;;9.40;6.13;;;15.40;99.90;;;;;;5067136;28;20939;-79
2022/10/10 11:01:46;;;;;;;8.10;6.47;;;15.40;99.90;;;;;;5059872;28;20957;-78
2022/10/10 11:05:04;;;;;;;6.70;5.87;;;15.50;99.90;;;;;;5055326;28;20476;-77
2022/10/10 11:08:03;;;;;;;10.57;6.53;;;15.60;99.90;;;;;;5055469;28;20450;-76
2022/10/10 11:10:38;;;;;;;6.60;5.50;;;15.70;99.90;;;;;;5057379;28;20477;-78
2022/10/10 11:13:14;;;;;;;7.00;5.40;;;15.70;99.90;;;;;;5059046;28;20432;-77
2022/10/10 11:15:48;;;;;;;8.13;5.37;;;15.80;99.90;;;;;;5056887;28;20836;-78
2022/10/10 11:18:41;;;;;;;8.37;5.63;;;15.90;99.90;;;;;;5059608;28;20426;-78
2022/10/10 11:21:14;;;;;;;6.80;5.30;;;15.90;99.90;;;;;;5057349;28;20442;-77
2022/10/10 11:23:49;;;;;;;7.70;5.90;;;16.00;99.90;;;;;;5056801;28;20426;-79
2022/10/10 11:26:23;;;;;;;6.20;5.20;;;16.10;99.90;;;;;;5056860;28;21013;-79
2022/10/10 11:28:57;;;;;;;5.50;4.93;;;16.10;99.90;;;;;;5057306;28;20485;-78
2022/10/10 11:31:32;;;;;;;7.43;5.67;;;16.20;99.90;;;;;;5056616;28;20511;-78
2022/10/10 11:34:06;;;;;;;7.33;5.23;;;16.20;99.90;;;;;;5054905;28;20452;-80
2022/10/10 11:36:37;;;;;;;7.13;4.97;;;16.30;99.90;;;;;;5055812;28;20469;-77
2022/10/10 11:39:16;;;;;;;5.80;4.63;;;16.30;99.90;;;;;;5054807;28;20449;-78
2022/10/10 11:41:51;;;;;;;7.43;4.83;;;16.30;99.90;;;;;;5053105;28;20476;-77
2022/10/10 11:44:25;;;;;;;8.27;5.97;;;16.40;99.90;;;;;;5057802;28;20441;-79
2022/10/10 11:46:59;;;;;;;9.27;5.27;;;16.40;99.90;;;;;;5055187;28;20449;-78
2022/10/10 11:49:34;;;;;;;6.83;5.53;;;16.40;99.90;;;;;;5053725;28;20443;-79
2022/10/10 11:52:17;;;;;;;8.60;5.07;;;16.50;99.90;;;;;;5057475;28;20392;-76
2022/10/10 11:55:10;;;;;;;9.90;5.70;;;16.50;99.90;;;;;;5055880;28;20447;-77
2022/10/10 11:57:43;;;;;;;7.97;5.90;;;16.60;99.90;;;;;;5054195;28;20423;-79
2022/10/10 12:00:14;;;;;;;6.07;5.47;;;16.60;99.90;;;;;;5058213;28;20456;-81
2022/10/10 12:02:44;;;;;;;7.23;4.53;;;16.70;99.90;;;;;;5066502;28;20396;-80
2022/10/10 12:05:22;;;;;;;8.50;4.50;;;16.70;99.90;;;;;;5065461;28;20441;-79
2022/10/10 12:08:07;;;;;;;6.40;4.67;;;16.80;99.90;;;;;;5060575;28;20409;-78
2022/10/10 12:10:42;;;;;;;6.23;4.70;;;16.80;99.90;;;;;;5061077;28;20951;-77
2022/10/10 12:13:24;;;;;;;6.77;4.33;;;16.80;99.90;;;;;;5064557;28;20871;-79
2022/10/10 12:15:55;;;;;;;5.53;4.20;;;16.80;99.90;;;;;;5064439;28;20479;-78
2022/10/10 12:18:26;;;;;;;5.50;3.73;;;16.90;99.90;;;;;;5062660;28;20458;-79
2022/10/10 12:21:06;;;;;;;8.07;4.90;;;16.90;99.90;;;;;;5063107;28;20419;-80
2022/10/10 12:23:34;;;;;;;7.20;3.67;;;16.90;99.90;;;;;;5062244;28;20436;-79
2022/10/10 12:26:04;;;;;;;5.07;4.40;;;17.00;99.90;;;;;;5060026;28;20469;-77
2022/10/10 12:28:37;;;;;;;5.93;4.50;;;17.00;99.90;;;;;;5059237;28;20817;-78
2022/10/10 12:31:29;;;;;;;4.83;3.67;;;17.00;99.90;;;;;;5059368;28;20446;-78
2022/10/10 12:34:15;;;;;;;8.17;4.50;;;17.10;99.90;;;;;;5060546;28;20409;-77
2022/10/10 12:36:56;;;;;;;7.83;4.20;;;17.10;99.90;;;;;;5061238;28;20459;-79
2022/10/10 12:39:33;;;;;;;4.20;3.40;;;17.10;99.90;;;;;;5060866;28;20410;-77
2022/10/10 12:42:03;;;;;;;8.07;4.20;;;17.20;99.90;;;;;;5061428;28;20426;-78
2022/10/10 12:44:45;;;;;;;10.00;3.83;;;17.20;99.90;;;;;;5064324;28;20472;-79
2022/10/10 12:47:42;;;;;;;4.40;3.50;;;17.30;99.90;;;;;;5063165;28;20914;-78
2022/10/10 12:50:33;;;;;;;6.53;3.27;;;17.30;99.90;;;;;;5062704;28;20412;-78
2022/10/10 12:53:03;;;;;;;5.10;3.57;;;17.40;99.90;;;;;;5063414;28;20447;-78
2022/10/10 12:55:40;;;;;;;5.47;3.30;;;17.40;99.90;;;;;;5062101;28;20476;-80
2022/10/10 12:58:16;;;;;;;5.70;3.87;;;17.50;99.90;;;;;;5062943;28;20418;-77
2022/10/10 13:00:56;;;;;;;5.10;3.00;;;17.50;99.90;;;;;;5062050;28;20520;-79
2022/10/10 13:03:28;;;;;;;9.53;3.30;;;17.60;99.90;;;;;;5064704;28;20393;-79
2022/10/10 13:06:02;;;;;;;5.70;3.27;;;17.60;99.90;;;;;;5064218;28;20819;-79
2022/10/10 13:08:31;;;;;;;6.50;3.03;;;17.60;99.90;;;;;;5060841;28;20409;-77
2022/10/10 13:11:04;;;;;;;5.33;2.97;;;17.60;99.90;;;;;;5062285;28;20425;-78
2022/10/10 13:13:35;;;;;;;5.80;3.20;;;17.60;99.90;;;;;;5058069;28;20431;-77
2022/10/10 13:16:09;;;;;;;7.33;2.97;;;17.60;99.90;;;;;;5058290;28;20476;-79
2022/10/10 13:18:38;;;;;;;5.50;3.10;;;17.60;99.90;;;;;;5058234;28;20775;-78
2022/10/10 13:21:09;;;;;;;6.13;2.63;;;17.60;99.90;;;;;;5057467;28;20432;-77